Nearby METAR Reports

 

KC09 - Morris-Washburn, Illinois, USA
Distance from station: NW 9mi, 14km
Updated: Sun, 28-May-2017 9:35am CDT
Overcast
Overcast
 Wind from W
Wind: W 3 mph , 6 km/h
Temperature: 70°F , 21°C
Dew Point: 63°F , 17°C
Humidity: 78%
Barometer: 29.74 inHg , 1007.1 hPa
Clouds: Overcast
Visibility: 10 miles , 16 km
Cloud details: Mostly cloudy 1900 ft
Mostly cloudy 2700 ft
Overcast 3200 ft
2017/05/28 14:35 KC09 281435Z AUTO 28003KT 10SM BKN019 BKN027 OVC032 21/17 A2974 RMK AO2 T02110170
KJOT - Joliet, Illinois, USA
Distance from station: NNE 13mi, 22km
Updated: Sun, 28-May-2017 9:35am CDT
Mostly cloudy
Mostly cloudy
 Wind from WNW
Wind: WNW 5 mph , 7 km/h
Temperature: 72°F , 22°C
Dew Point: 64°F , 18°C
Humidity: 78%
Barometer: 29.75 inHg , 1007.5 hPa
Clouds: Mostly cloudy
Visibility: 10 miles , 16 km
Cloud details: Mostly cloudy 2300 ft
2017/05/28 14:35 KJOT 281435Z AUTO 29004KT 10SM BKN023 22/18 A2975 RMK AO2 T02190184
 
KLOT - Romeoville/Chi, Illinois, USA
Distance from station: NNE 21mi, 33km
Updated: Sun, 28-May-2017 9:35am CDT
Partly cloudy
Partly cloudy
 Wind from W
Wind: W 9 mph , 15 km/h
Temperature: 70°F , 21°C
Dew Point: 66°F , 19°C
Humidity: 88%
Barometer: 29.75 inHg , 1007.5 hPa
Clouds: Partly cloudy
Visibility: 7 miles , 11 km
Cloud details: Partly cloudy 2700 ft
2017/05/28 14:35 KLOT 281435Z AUTO 28008KT 7SM SCT027 21/19 A2975 RMK AO2 T02120189
KIKK - Kankakee, Illinois, USA
Distance from station: SE 30mi, 48km
Updated: Sun, 28-May-2017 9:35am CDT
Clear
Clear
 Wind from calm
Wind: Calm
Temperature: 77°F , 25°C
Dew Point: 66°F , 19°C
Humidity: 69%
Barometer: 29.74 inHg , 1007.1 hPa
Clouds: Clear
Visibility: 10 miles , 16 km
2017/05/28 14:35 KIKK 281435Z AUTO 00000KT 10SM CLR 25/19 A2974 RMK AO2 T02450185
 
KARR - Chicago/Aurora, Illinois, USA
Distance from station: NNW 31mi, 50km
Updated: Sun, 28-May-2017 9:18am CDT
Haze, Overcast
Haze, Overcast
 Wind from WNW
Wind: WNW 9 mph , 15 km/h
Temperature: 68°F , 20°C
Dew Point: 63°F , 17°C
Humidity: 83%
Barometer: 29.77 inHg , 1008.1 hPa
Summary: Haze
Clouds: Overcast
Visibility: 4 miles , 6 km
Cloud details: Mostly cloudy 1200 ft
Mostly cloudy 2000 ft
Overcast 2800 ft
2017/05/28 14:18 KARR 281418Z 30008KT 4SM HZ BKN012 BKN020 OVC028 20/17 A2977 RMK AO2 LTG DSNT NW T02000172 $
KPNT - Pontiac, Illinois, USA
Distance from station: SSW 34mi, 54km
Updated: Sun, 28-May-2017 9:35am CDT
Partly cloudy
Partly cloudy
 Wind from W
Wind: W 6 mph , 9 km/h
Temperature: 72°F , 22°C
Dew Point: 66°F , 19°C
Humidity: 83%
Barometer: 29.75 inHg , 1007.5 hPa
Clouds: Partly cloudy
Visibility: 10 miles , 16 km
Cloud details: Partly cloudy 3100 ft
2017/05/28 14:35 KPNT 281435Z AUTO 26005KT 10SM SCT031 22/19 A2975 RMK AO2 T02220194
 
KDPA - Chicago/Dupage, Illinois, USA
Distance from station: N 40mi, 64km
Updated: Sun, 28-May-2017 9:01am CDT
Haze, Mostly cloudy
Haze, Mostly cloudy
 Wind from W
Wind: W 12 mph , 19 km/h
Temperature: 66°F , 19°C
Dew Point: 63°F , 17°C
Humidity: 88%
Barometer: 29.76 inHg , 1007.8 hPa
Summary: Haze
Clouds: Mostly cloudy
Visibility: 5 miles , 8 km
Cloud details: Mostly cloudy 2100 ft
Mostly cloudy 2500 ft
2017/05/28 14:01 KDPA 281401Z 27010KT 5SM HZ BKN021 BKN025 19/17 A2976 RMK AO2 LTG DSNT NW T01940167
KIGQ - Chicago/Lansing, Illinois, USA
Distance from station: ENE 42mi, 67km
Updated: Sun, 28-May-2017 9:35am CDT
Mostly cloudy
Mostly cloudy
 Wind from WNW
Wind: WNW 3 mph , 6 km/h
Temperature: 72°F , 22°C
Dew Point: 66°F , 19°C
Humidity: 83%
Barometer: 29.73 inHg , 1006.8 hPa
Clouds: Mostly cloudy
Visibility: 10 miles , 16 km
Cloud details: Mostly cloudy 8500 ft
2017/05/28 14:35 KIGQ 281435Z AUTO 29003KT 10SM BKN085 22/19 A2973 RMK AO2 T02200190
 
KMDW - Chicago, Illinois, USA
Distance from station: NE 42mi, 67km
Updated: Sun, 28-May-2017 8:53am CDT
Mostly cloudy
Mostly cloudy
 Wind from W
Wind: W 5 mph , 7 km/h
Temperature: 70°F , 21°C
Dew Point: 63°F , 17°C
Humidity: 78%
Barometer: 29.74 inHg , 1007.1 hPa
Clouds: Mostly cloudy
Visibility: 10 miles , 16 km
Cloud details: Few Clouds 2000 ft
Few Clouds 15000 ft
Mostly cloudy 25000 ft
2017/05/28 13:53 KMDW 281353Z 26004KT 10SM FEW020 FEW150 BKN250 21/17 A2974 RMK AO2 SLP065 CB DSNT NW T02110167 $
KVYS - Peru, Illinois, USA
Distance from station: W 44mi, 71km
Updated: Sun, 28-May-2017 9:35am CDT
Mostly cloudy
Mostly cloudy
 Wind from NNW
Wind: NNW 15 mph , 24 km/h
Temperature: 66°F , 19°C
Dew Point: 59°F , 15°C
Humidity: 78%
Barometer: 29.77 inHg , 1008.1 hPa
Clouds: Mostly cloudy
Visibility: 10 miles , 16 km
Cloud details: Partly cloudy 2600 ft
Mostly cloudy 3500 ft
Mostly cloudy 4700 ft
2017/05/28 14:35 KVYS 281435Z AUTO 34013KT 10SM SCT026 BKN035 BKN047 19/15 A2977 RMK AO2 T01920154
 
KDKB - De Kalb, Illinois, USA
Distance from station: NNW 46mi, 74km
Updated: Sun, 28-May-2017 9:35am CDT
Overcast
Overcast
 Wind from N
Wind: N 8 mph , 13 km/h
Temperature: 64°F , 18°C
Dew Point: 61°F , 16°C
Humidity: 88%
Barometer: 29.78 inHg , 1008.5 hPa
Clouds: Overcast
Visibility: 7 miles , 11 km
Cloud details: Mostly cloudy 2100 ft
Mostly cloudy 2900 ft
Overcast 10000 ft
2017/05/28 14:35 KDKB 281435Z AUTO 36007KT 7SM BKN021 BKN029 OVC100 18/16 A2978 RMK AO2 T01820161
KORD - Chicago O'hare, Illinois, USA
Distance from station: NNE 48mi, 78km
Updated: Sun, 28-May-2017 8:51am CDT
Mostly cloudy
Mostly cloudy
 Wind from WNW
Wind: WNW 3 mph , 6 km/h
Temperature: 70°F , 21°C
Dew Point: 61°F , 16°C
Humidity: 73%
Barometer: 29.74 inHg , 1007.1 hPa
Clouds: Mostly cloudy
Visibility: 7 miles , 11 km
Cloud details: Few Clouds 2000 ft
Few Clouds 10000 ft
Mostly cloudy 25000 ft
2017/05/28 13:51 KORD 281351Z 30003KT 7SM FEW020 FEW100 BKN250 21/16 A2974 RMK AO2 SLP068 T02060156
 
KGYY - Gary Regional, Indiana, USA
Distance from station: ENE 49mi, 80km
Updated: Sun, 28-May-2017 8:45am CDT
Mostly cloudy
Mostly cloudy
 Wind from calm
Wind: Calm
Temperature: 70°F , 21°C
Dew Point: 63°F , 17°C
Humidity: 78%
Barometer: 29.74 inHg , 1007.1 hPa
Clouds: Mostly cloudy
Visibility: 7 miles , 11 km
Cloud details: Partly cloudy 15000 ft
Mostly cloudy 25000 ft
2017/05/28 13:45 KGYY 281345Z 00000KT 7SM SCT150 BKN250 21/17 A2974